Princeton, California
Current Conditions -  °F | °C
As of 11:53 AM on Thursday 23 Oct 2014 (Local Time) from KOVE Reporting Station
Few Clouds Few Clouds  
Wind Chill: 65°   Ceiling: Unl
Heat Index: 65°   Visibility: 10mi
Dew Point: 50°   Wind: 0mph
Humidity: 58%   Direction: NA
Pressure: 30.08"   Gusts: NA
Location:  39.4°N, 122.01°W
Report Text: KOVE 231853Z AUTO 00000KT 10SM FEW120 18/10 A3008 RMK AO2 SLP187 T01830100
Loading
Personal Weather Stations






























Interactive Weather Map
Tropical Storm Tracking
New forecast layout! Learn more

10-Day Weather Forecast

Advertisements
Track Severe Weather on mobile